sensor_id;sensor_type;location;lat;lon;timestamp;pressure;altitude;pressure_sealevel;temperature;humidity
37078;BME280;22989;55.998;37.212;2023-03-20T00:00:55;-11298.94;;;-145.39;49.50
37078;BME280;22989;55.998;37.212;2023-03-20T00:03:21;-11298.94;;;-145.39;49.26
37078;BME280;22989;55.998;37.212;2023-03-20T00:05:46;-11298.94;;;-145.39;49.26
37078;BME280;22989;55.998;37.212;2023-03-20T00:08:12;-11298.94;;;-145.39;49.36
37078;BME280;22989;55.998;37.212;2023-03-20T00:10:43;-11298.94;;;-145.39;49.21
37078;BME280;22989;55.998;37.212;2023-03-20T00:13:13;-11298.94;;;-145.39;49.05
37078;BME280;22989;55.998;37.212;2023-03-20T00:15:42;-11298.94;;;-145.39;49.39
37078;BME280;22989;55.998;37.212;2023-03-20T00:18:17;-11298.94;;;-145.39;49.46
37078;BME280;22989;55.998;37.212;2023-03-20T00:20:45;-11298.94;;;-145.39;49.62
37078;BME280;22989;55.998;37.212;2023-03-20T00:23:12;-11298.94;;;-145.39;49.55
37078;BME280;22989;55.998;37.212;2023-03-20T00:25:39;-11298.94;;;-145.39;49.98
37078;BME280;22989;55.998;37.212;2023-03-20T00:30:58;-11298.94;;;-145.39;50.29
37078;BME280;22989;55.998;37.212;2023-03-20T00:33:24;-11298.94;;;-145.39;50.16
37078;BME280;22989;55.998;37.212;2023-03-20T00:35:51;-11298.94;;;-145.39;50.08
37078;BME280;22989;55.998;37.212;2023-03-20T00:38:17;-11298.94;;;-145.39;50.08
37078;BME280;22989;55.998;37.212;2023-03-20T00:40:43;-11298.94;;;-145.39;50.00
37078;BME280;22989;55.998;37.212;2023-03-20T00:43:12;-11298.94;;;-145.39;50.07
37078;BME280;22989;55.998;37.212;2023-03-20T00:45:38;-11298.94;;;-145.39;50.11
37078;BME280;22989;55.998;37.212;2023-03-20T00:48:12;-11298.94;;;-145.39;50.02
37078;BME280;22989;55.998;37.212;2023-03-20T00:50:39;-11298.94;;;-145.39;49.98
37078;BME280;22989;55.998;37.212;2023-03-20T00:53:05;-11298.94;;;-145.39;49.84
37078;BME280;22989;55.998;37.212;2023-03-20T00:55:31;-11298.94;;;-145.39;49.82
37078;BME280;22989;55.998;37.212;2023-03-20T00:58:02;-11298.94;;;-145.39;49.75
37078;BME280;22989;55.998;37.212;2023-03-20T01:00:40;-11298.94;;;-145.39;49.69
37078;BME280;22989;55.998;37.212;2023-03-20T01:03:14;-11298.94;;;-145.39;49.82
37078;BME280;22989;55.998;37.212;2023-03-20T01:05:41;-11298.94;;;-145.39;49.53
37078;BME280;22989;55.998;37.212;2023-03-20T01:10:40;-11298.94;;;-145.39;49.45
37078;BME280;22989;55.998;37.212;2023-03-20T01:13:15;-11298.94;;;-145.39;49.48
37078;BME280;22989;55.998;37.212;2023-03-20T01:15:42;-11298.94;;;-145.39;49.43
37078;BME280;22989;55.998;37.212;2023-03-20T01:18:11;-11298.94;;;-145.39;49.32
37078;BME280;22989;55.998;37.212;2023-03-20T01:20:38;-11298.94;;;-145.39;49.07
37078;BME280;22989;55.998;37.212;2023-03-20T01:23:03;-11298.94;;;-145.39;49.15
37078;BME280;22989;55.998;37.212;2023-03-20T01:25:29;-11298.94;;;-145.39;49.10
37078;BME280;22989;55.998;37.212;2023-03-20T01:27:56;-11298.94;;;-145.39;49.38
37078;BME280;22989;55.998;37.212;2023-03-20T01:30:28;-11298.94;;;-145.39;49.34
37078;BME280;22989;55.998;37.212;2023-03-20T01:32:55;-11298.94;;;-145.39;49.44
37078;BME280;22989;55.998;37.212;2023-03-20T01:35:24;-11298.94;;;-145.39;49.28
37078;BME280;22989;55.998;37.212;2023-03-20T01:37:50;-11298.94;;;-145.39;49.15
37078;BME280;22989;55.998;37.212;2023-03-20T01:40:28;-11298.94;;;-145.39;48.77
37078;BME280;22989;55.998;37.212;2023-03-20T01:42:55;-11298.94;;;-145.39;48.65
37078;BME280;22989;55.998;37.212;2023-03-20T01:45:25;-11298.94;;;-145.39;48.69
37078;BME280;22989;55.998;37.212;2023-03-20T01:47:53;-11298.94;;;-145.39;48.79
37078;BME280;22989;55.998;37.212;2023-03-20T01:53:05;-11298.94;;;-145.39;48.57
37078;BME280;22989;55.998;37.212;2023-03-20T01:55:37;-11298.94;;;-145.39;48.62
37078;BME280;22989;55.998;37.212;2023-03-20T01:58:09;-11298.94;;;-145.39;48.60
37078;BME280;22989;55.998;37.212;2023-03-20T02:00:37;-11298.94;;;-145.39;48.72
37078;BME280;22989;55.998;37.212;2023-03-20T02:03:07;-11298.94;;;-145.39;48.55
37078;BME280;22989;55.998;37.212;2023-03-20T02:06:05;-11298.94;;;-145.39;48.32
37078;BME280;22989;55.998;37.212;2023-03-20T02:08:51;-11298.94;;;-145.39;48.55
37078;BME280;22989;55.998;37.212;2023-03-20T02:11:20;-11298.94;;;-145.39;48.62
37078;BME280;22989;55.998;37.212;2023-03-20T02:13:50;-11298.94;;;-145.39;48.50
37078;BME280;22989;55.998;37.212;2023-03-20T02:16:17;-11298.94;;;-145.39;48.52
37078;BME280;22989;55.998;37.212;2023-03-20T02:19:00;-11298.94;;;-145.39;48.79
37078;BME280;22989;55.998;37.212;2023-03-20T02:22:03;-11298.94;;;-145.39;48.87
37078;BME280;22989;55.998;37.212;2023-03-20T02:27:43;-11298.94;;;-145.39;48.99
37078;BME280;22989;55.998;37.212;2023-03-20T02:36:11;-11298.94;;;-145.39;49.13
37078;BME280;22989;55.998;37.212;2023-03-20T02:39:02;-11298.94;;;-145.39;49.28
37078;BME280;22989;55.998;37.212;2023-03-20T02:47:02;-11298.94;;;-145.39;49.22
37078;BME280;22989;55.998;37.212;2023-03-20T02:49:44;-11298.94;;;-145.39;49.33
37078;BME280;22989;55.998;37.212;2023-03-20T03:00:25;-11298.94;;;-145.39;49.91
37078;BME280;22989;55.998;37.212;2023-03-20T03:03:18;-11298.94;;;-145.39;49.92
37078;BME280;22989;55.998;37.212;2023-03-20T03:05:49;-11298.94;;;-145.39;49.91
37078;BME280;22989;55.998;37.212;2023-03-20T03:08:19;-11298.94;;;-145.39;50.13
37078;BME280;22989;55.998;37.212;2023-03-20T03:10:57;-11298.94;;;-145.39;50.36
37078;BME280;22989;55.998;37.212;2023-03-20T03:13:28;-11298.94;;;-145.39;50.10
37078;BME280;22989;55.998;37.212;2023-03-20T03:15:59;-11298.94;;;-145.39;50.17
37078;BME280;22989;55.998;37.212;2023-03-20T03:18:28;-11298.94;;;-145.39;50.36
37078;BME280;22989;55.998;37.212;2023-03-20T03:20:58;-11298.94;;;-145.39;50.34
37078;BME280;22989;55.998;37.212;2023-03-20T03:23:32;-11298.94;;;-145.39;50.31
37078;BME280;22989;55.998;37.212;2023-03-20T03:26:01;-11298.94;;;-145.39;50.53
37078;BME280;22989;55.998;37.212;2023-03-20T03:28:36;-11298.94;;;-145.39;50.57
37078;BME280;22989;55.998;37.212;2023-03-20T03:31:06;-11298.94;;;-145.39;50.57
37078;BME280;22989;55.998;37.212;2023-03-20T03:33:34;-11298.94;;;-145.39;50.41
37078;BME280;22989;55.998;37.212;2023-03-20T03:41:43;-11298.94;;;-145.39;50.39
37078;BME280;22989;55.998;37.212;2023-03-20T03:44:26;-11298.94;;;-145.39;50.28
37078;BME280;22989;55.998;37.212;2023-03-20T03:47:01;-11298.94;;;-145.39;50.02
37078;BME280;22989;55.998;37.212;2023-03-20T03:49:33;-11298.94;;;-145.39;50.01
37078;BME280;22989;55.998;37.212;2023-03-20T03:52:05;-11298.94;;;-145.39;49.75
37078;BME280;22989;55.998;37.212;2023-03-20T03:57:50;-11298.94;;;-145.39;49.00
37078;BME280;22989;55.998;37.212;2023-03-20T04:00:22;-11298.94;;;-145.39;48.69
37078;BME280;22989;55.998;37.212;2023-03-20T04:02:50;-11298.94;;;-145.39;48.28
37078;BME280;22989;55.998;37.212;2023-03-20T04:05:18;-11298.94;;;-145.39;48.05
37078;BME280;22989;55.998;37.212;2023-03-20T04:07:46;-11298.94;;;-145.39;47.63
37078;BME280;22989;55.998;37.212;2023-03-20T04:10:13;-11298.94;;;-145.39;47.37
37078;BME280;22989;55.998;37.212;2023-03-20T04:12:41;-11298.94;;;-145.39;46.88
37078;BME280;22989;55.998;37.212;2023-03-20T04:15:10;-11298.94;;;-145.39;46.71
37078;BME280;22989;55.998;37.212;2023-03-20T04:17:36;-11298.94;;;-145.39;46.46
37078;BME280;22989;55.998;37.212;2023-03-20T04:20:04;-11298.94;;;-145.39;46.42
37078;BME280;22989;55.998;37.212;2023-03-20T04:22:29;-11298.94;;;-145.39;46.00
37078;BME280;22989;55.998;37.212;2023-03-20T04:25:06;-11298.94;;;-145.39;45.53
37078;BME280;22989;55.998;37.212;2023-03-20T04:27:32;-11298.94;;;-145.39;45.07
37078;BME280;22989;55.998;37.212;2023-03-20T04:29:58;-11298.94;;;-145.39;44.47
37078;BME280;22989;55.998;37.212;2023-03-20T04:32:43;-11298.94;;;-145.39;44.09
37078;BME280;22989;55.998;37.212;2023-03-20T04:35:17;-11298.94;;;-145.39;43.54
37078;BME280;22989;55.998;37.212;2023-03-20T04:37:52;-11298.94;;;-145.39;43.24
37078;BME280;22989;55.998;37.212;2023-03-20T04:40:18;-11298.94;;;-145.39;42.75
37078;BME280;22989;55.998;37.212;2023-03-20T04:42:45;-11298.94;;;-145.39;42.31
37078;BME280;22989;55.998;37.212;2023-03-20T04:45:11;-11298.94;;;-145.39;42.17
37078;BME280;22989;55.998;37.212;2023-03-20T04:47:37;-11298.94;;;-145.39;42.15
37078;BME280;22989;55.998;37.212;2023-03-20T04:50:05;-11298.94;;;-145.39;42.25
37078;BME280;22989;55.998;37.212;2023-03-20T04:52:31;-11298.94;;;-145.39;42.08
37078;BME280;22989;55.998;37.212;2023-03-20T04:54:57;-11298.94;;;-145.39;41.63
37078;BME280;22989;55.998;37.212;2023-03-20T04:57:23;-11298.94;;;-145.39;41.27
37078;BME280;22989;55.998;37.212;2023-03-20T04:59:50;-11298.94;;;-145.39;41.14
37078;BME280;22989;55.998;37.212;2023-03-20T05:02:16;-11298.94;;;-145.39;40.53
37078;BME280;22989;55.998;37.212;2023-03-20T05:04:42;-11298.94;;;-145.39;39.85
37078;BME280;22989;55.998;37.212;2023-03-20T05:07:09;-11298.94;;;-145.39;38.76
37078;BME280;22989;55.998;37.212;2023-03-20T05:10:01;-11298.94;;;-145.39;36.93
37078;BME280;22989;55.998;37.212;2023-03-20T05:12:31;-11298.94;;;-145.39;36.10
37078;BME280;22989;55.998;37.212;2023-03-20T05:15:06;-11298.94;;;-145.39;36.04
37078;BME280;22989;55.998;37.212;2023-03-20T05:17:51;-11298.94;;;-145.39;36.04
37078;BME280;22989;55.998;37.212;2023-03-20T05:20:30;-11298.94;;;-145.39;35.85
37078;BME280;22989;55.998;37.212;2023-03-20T05:23:03;-11298.94;;;-145.39;35.77
37078;BME280;22989;55.998;37.212;2023-03-20T05:25:47;-11298.94;;;-145.39;35.47
37078;BME280;22989;55.998;37.212;2023-03-20T05:28:39;-11298.94;;;-145.39;34.67
37078;BME280;22989;55.998;37.212;2023-03-20T05:31:24;-11298.94;;;-145.39;32.73
37078;BME280;22989;55.998;37.212;2023-03-20T05:34:16;-11298.94;;;-145.39;30.55
37078;BME280;22989;55.998;37.212;2023-03-20T05:37:08;-11298.94;;;-145.39;29.57
37078;BME280;22989;55.998;37.212;2023-03-20T05:40:04;-11298.94;;;-145.39;29.13
37078;BME280;22989;55.998;37.212;2023-03-20T05:42:44;-11298.94;;;-145.39;28.96
37078;BME280;22989;55.998;37.212;2023-03-20T05:45:33;-11298.94;;;-145.39;29.00
37078;BME280;22989;55.998;37.212;2023-03-20T05:48:18;-11298.94;;;-145.39;28.64
37078;BME280;22989;55.998;37.212;2023-03-20T05:51:04;-11298.94;;;-145.39;27.53
37078;BME280;22989;55.998;37.212;2023-03-20T05:53:56;-11298.94;;;-145.39;26.86
37078;BME280;22989;55.998;37.212;2023-03-20T05:56:27;-11298.94;;;-145.39;26.70
37078;BME280;22989;55.998;37.212;2023-03-20T05:59:15;-11298.94;;;-145.39;26.80
37078;BME280;22989;55.998;37.212;2023-03-20T06:01:59;-11298.94;;;-145.39;26.58
37078;BME280;22989;55.998;37.212;2023-03-20T06:04:29;-11298.94;;;-145.39;26.30
37078;BME280;22989;55.998;37.212;2023-03-20T06:07:16;-11298.94;;;-145.39;25.85
37078;BME280;22989;55.998;37.212;2023-03-20T06:09:47;-11298.94;;;-145.39;25.98
37078;BME280;22989;55.998;37.212;2023-03-20T06:12:13;-11298.94;;;-145.39;26.47
37078;BME280;22989;55.998;37.212;2023-03-20T06:14:39;-11298.94;;;-145.39;26.83
37078;BME280;22989;55.998;37.212;2023-03-20T06:17:06;-11298.94;;;-145.39;27.05
37078;BME280;22989;55.998;37.212;2023-03-20T06:19:33;-11298.94;;;-145.39;27.21
37078;BME280;22989;55.998;37.212;2023-03-20T06:21:58;-11298.94;;;-145.39;27.32
37078;BME280;22989;55.998;37.212;2023-03-20T06:24:24;-11298.94;;;-145.39;27.03
37078;BME280;22989;55.998;37.212;2023-03-20T06:26:50;-11298.94;;;-145.39;26.47
37078;BME280;22989;55.998;37.212;2023-03-20T06:29:17;-11298.94;;;-145.39;26.06
37078;BME280;22989;55.998;37.212;2023-03-20T06:31:43;-11298.94;;;-145.39;25.88
37078;BME280;22989;55.998;37.212;2023-03-20T06:34:14;-11298.94;;;-145.39;26.35
37078;BME280;22989;55.998;37.212;2023-03-20T06:36:44;-11298.94;;;-145.39;26.90
37078;BME280;22989;55.998;37.212;2023-03-20T06:39:16;-11298.94;;;-145.39;27.18
37078;BME280;22989;55.998;37.212;2023-03-20T06:41:42;-11298.94;;;-145.39;27.45
37078;BME280;22989;55.998;37.212;2023-03-20T06:44:09;-11298.94;;;-145.39;27.54
37078;BME280;22989;55.998;37.212;2023-03-20T06:47:10;-11298.94;;;-145.39;27.80
37078;BME280;22989;55.998;37.212;2023-03-20T06:49:36;-11298.94;;;-145.39;27.39
37078;BME280;22989;55.998;37.212;2023-03-20T06:52:01;-11298.94;;;-145.39;26.65
37078;BME280;22989;55.998;37.212;2023-03-20T06:54:29;-11298.94;;;-145.39;25.70
37078;BME280;22989;55.998;37.212;2023-03-20T06:56:56;-11298.94;;;-145.39;25.25
37078;BME280;22989;55.998;37.212;2023-03-20T06:59:21;-11298.94;;;-145.39;24.79
37078;BME280;22989;55.998;37.212;2023-03-20T07:01:50;-11298.94;;;-145.39;24.61
37078;BME280;22989;55.998;37.212;2023-03-20T07:04:17;-11298.94;;;-145.39;24.38
37078;BME280;22989;55.998;37.212;2023-03-20T07:06:48;-11298.94;;;-145.39;24.37
37078;BME280;22989;55.998;37.212;2023-03-20T07:09:13;-11298.94;;;-145.39;24.24
37078;BME280;22989;55.998;37.212;2023-03-20T07:11:42;-11298.94;;;-145.39;24.50
37078;BME280;22989;55.998;37.212;2023-03-20T07:14:08;-11298.94;;;-145.39;24.72
37078;BME280;22989;55.998;37.212;2023-03-20T07:17:02;-11298.94;;;-145.39;24.70
37078;BME280;22989;55.998;37.212;2023-03-20T07:19:29;-11298.94;;;-145.39;24.06
37078;BME280;22989;55.998;37.212;2023-03-20T07:21:59;-11298.94;;;-145.39;23.75
37078;BME280;22989;55.998;37.212;2023-03-20T07:24:31;-11298.94;;;-145.39;23.38
37078;BME280;22989;55.998;37.212;2023-03-20T07:26:57;-11298.94;;;-145.39;23.49
37078;BME280;22989;55.998;37.212;2023-03-20T07:29:24;-11298.94;;;-145.39;23.18
37078;BME280;22989;55.998;37.212;2023-03-20T07:31:49;-11298.94;;;-145.39;23.03
37078;BME280;22989;55.998;37.212;2023-03-20T07:34:22;-11298.94;;;-145.39;23.16
37078;BME280;22989;55.998;37.212;2023-03-20T07:36:49;-11298.94;;;-145.39;23.41
37078;BME280;22989;55.998;37.212;2023-03-20T07:39:18;-11298.94;;;-145.39;23.48
37078;BME280;22989;55.998;37.212;2023-03-20T07:41:53;-11298.94;;;-145.39;23.56
37078;BME280;22989;55.998;37.212;2023-03-20T07:44:36;-11298.94;;;-145.39;23.54
37078;BME280;22989;55.998;37.212;2023-03-20T07:47:07;-11298.94;;;-145.39;23.59
37078;BME280;22989;55.998;37.212;2023-03-20T07:49:33;-11298.94;;;-145.39;24.24
37078;BME280;22989;55.998;37.212;2023-03-20T07:51:59;-11298.94;;;-145.39;24.28
37078;BME280;22989;55.998;37.212;2023-03-20T07:54:25;-11298.94;;;-145.39;24.58
37078;BME280;22989;55.998;37.212;2023-03-20T07:56:51;-11298.94;;;-145.39;24.79
37078;BME280;22989;55.998;37.212;2023-03-20T07:59:17;-11298.94;;;-145.39;24.88
37078;BME280;22989;55.998;37.212;2023-03-20T08:01:43;-11298.94;;;-145.39;25.03
37078;BME280;22989;55.998;37.212;2023-03-20T08:04:09;-11298.94;;;-145.39;25.30
37078;BME280;22989;55.998;37.212;2023-03-20T08:06:36;-11298.94;;;-145.39;25.68
37078;BME280;22989;55.998;37.212;2023-03-20T08:09:04;-11298.94;;;-145.39;25.63
37078;BME280;22989;55.998;37.212;2023-03-20T08:11:30;-11298.94;;;-145.39;25.47
37078;BME280;22989;55.998;37.212;2023-03-20T08:13:55;-11298.94;;;-145.39;25.50
37078;BME280;22989;55.998;37.212;2023-03-20T08:16:21;-11298.94;;;-145.39;25.83
37078;BME280;22989;55.998;37.212;2023-03-20T08:18:46;-11298.94;;;-145.39;25.65
37078;BME280;22989;55.998;37.212;2023-03-20T08:21:12;-11298.94;;;-145.39;25.67
37078;BME280;22989;55.998;37.212;2023-03-20T08:23:38;-11298.94;;;-145.39;25.76
37078;BME280;22989;55.998;37.212;2023-03-20T08:26:03;-11298.94;;;-145.39;25.71
37078;BME280;22989;55.998;37.212;2023-03-20T08:28:29;-11298.94;;;-145.39;25.68
37078;BME280;22989;55.998;37.212;2023-03-20T08:30:55;-11298.94;;;-145.39;26.00
37078;BME280;22989;55.998;37.212;2023-03-20T08:33:21;-11298.94;;;-145.39;25.98
37078;BME280;22989;55.998;37.212;2023-03-20T08:35:57;-11298.94;;;-145.39;26.00
37078;BME280;22989;55.998;37.212;2023-03-20T08:38:23;-11298.94;;;-145.39;26.15
37078;BME280;22989;55.998;37.212;2023-03-20T08:40:49;-11298.94;;;-145.39;26.39
37078;BME280;22989;55.998;37.212;2023-03-20T08:43:15;-11298.94;;;-145.39;26.70
37078;BME280;22989;55.998;37.212;2023-03-20T08:45:41;-11298.94;;;-145.39;26.74
37078;BME280;22989;55.998;37.212;2023-03-20T08:48:08;-11298.94;;;-145.39;26.59
37078;BME280;22989;55.998;37.212;2023-03-20T08:50:33;-11298.94;;;-145.39;26.55
37078;BME280;22989;55.998;37.212;2023-03-20T08:52:59;-11298.94;;;-145.39;26.54
37078;BME280;22989;55.998;37.212;2023-03-20T08:55:25;-11298.94;;;-145.39;26.76
37078;BME280;22989;55.998;37.212;2023-03-20T08:57:51;-11298.94;;;-145.39;26.72
37078;BME280;22989;55.998;37.212;2023-03-20T09:00:18;-11298.94;;;-145.39;26.98
37078;BME280;22989;55.998;37.212;2023-03-20T09:02:44;-11298.94;;;-145.39;27.05
37078;BME280;22989;55.998;37.212;2023-03-20T09:05:10;-11298.94;;;-145.39;27.24
37078;BME280;22989;55.998;37.212;2023-03-20T09:07:36;-11298.94;;;-145.39;27.16
37078;BME280;22989;55.998;37.212;2023-03-20T09:10:03;-11298.94;;;-145.39;27.29
37078;BME280;22989;55.998;37.212;2023-03-20T09:12:29;-11298.94;;;-145.39;26.86
37078;BME280;22989;55.998;37.212;2023-03-20T09:14:57;-11298.94;;;-145.39;26.96
37078;BME280;22989;55.998;37.212;2023-03-20T09:17:23;-11298.94;;;-145.39;26.81
37078;BME280;22989;55.998;37.212;2023-03-20T09:19:49;-11298.94;;;-145.39;26.91
37078;BME280;22989;55.998;37.212;2023-03-20T09:22:15;-11298.94;;;-145.39;26.86
37078;BME280;22989;55.998;37.212;2023-03-20T09:24:43;-11298.94;;;-145.39;26.80
37078;BME280;22989;55.998;37.212;2023-03-20T09:27:08;-11298.94;;;-145.39;26.75
37078;BME280;22989;55.998;37.212;2023-03-20T09:29:34;-11298.94;;;-145.39;26.92
37078;BME280;22989;55.998;37.212;2023-03-20T09:32:00;-11298.94;;;-145.39;26.93
37078;BME280;22989;55.998;37.212;2023-03-20T09:34:26;-11298.94;;;-145.39;26.83
37078;BME280;22989;55.998;37.212;2023-03-20T09:36:51;-11298.94;;;-145.39;26.66
37078;BME280;22989;55.998;37.212;2023-03-20T09:39:17;-11298.94;;;-145.39;26.48
37078;BME280;22989;55.998;37.212;2023-03-20T09:41:47;-11298.94;;;-145.39;26.70
37078;BME280;22989;55.998;37.212;2023-03-20T09:47:32;-11298.94;;;-145.39;26.41
37078;BME280;22989;55.998;37.212;2023-03-20T09:52:37;-11298.94;;;-145.39;26.13
37078;BME280;22989;55.998;37.212;2023-03-20T09:55:16;-11298.94;;;-145.39;25.92
37078;BME280;22989;55.998;37.212;2023-03-20T09:57:50;-11298.94;;;-145.39;25.88
37078;BME280;22989;55.998;37.212;2023-03-20T10:00:19;-11298.94;;;-145.39;25.94
37078;BME280;22989;55.998;37.212;2023-03-20T10:02:50;-11298.94;;;-145.39;25.85
37078;BME280;22989;55.998;37.212;2023-03-20T10:07:53;-11298.94;;;-145.39;25.86
37078;BME280;22989;55.998;37.212;2023-03-20T10:10:36;-11298.94;;;-145.39;25.76
37078;BME280;22989;55.998;37.212;2023-03-20T10:15:49;-11298.94;;;-145.39;25.35
37078;BME280;22989;55.998;37.212;2023-03-20T10:18:26;-11298.94;;;-145.39;25.43
37078;BME280;22989;55.998;37.212;2023-03-20T10:20:58;-11298.94;;;-145.39;25.18
37078;BME280;22989;55.998;37.212;2023-03-20T10:26:01;-11298.94;;;-145.39;25.00
37078;BME280;22989;55.998;37.212;2023-03-20T10:28:37;-11298.94;;;-145.39;24.99
37078;BME280;22989;55.998;37.212;2023-03-20T10:31:15;-11298.94;;;-145.39;24.80
37078;BME280;22989;55.998;37.212;2023-03-20T10:42:40;-11298.94;;;-145.39;24.59
37078;BME280;22989;55.998;37.212;2023-03-20T10:47:43;-11298.94;;;-145.39;24.21
37078;BME280;22989;55.998;37.212;2023-03-20T10:50:22;-11298.94;;;-145.39;24.57
37078;BME280;22989;55.998;37.212;2023-03-20T10:52:50;-11298.94;;;-145.39;24.29
37078;BME280;22989;55.998;37.212;2023-03-20T10:55:25;-11298.94;;;-145.39;24.21
37078;BME280;22989;55.998;37.212;2023-03-20T10:58:22;-11298.94;;;-145.39;23.80
37078;BME280;22989;55.998;37.212;2023-03-20T11:00:49;-11298.94;;;-145.39;24.08
37078;BME280;22989;55.998;37.212;2023-03-20T11:03:27;-11298.94;;;-145.39;24.11
37078;BME280;22989;55.998;37.212;2023-03-20T11:06:02;-11298.94;;;-145.39;24.29
37078;BME280;22989;55.998;37.212;2023-03-20T11:08:34;-11298.94;;;-145.39;24.23
37078;BME280;22989;55.998;37.212;2023-03-20T11:11:01;-11298.94;;;-145.39;24.34
37078;BME280;22989;55.998;37.212;2023-03-20T11:13:37;-11298.94;;;-145.39;24.36
37078;BME280;22989;55.998;37.212;2023-03-20T11:16:20;-11298.94;;;-145.39;24.16
37078;BME280;22989;55.998;37.212;2023-03-20T11:18:47;-11298.94;;;-145.39;24.32
37078;BME280;22989;55.998;37.212;2023-03-20T11:23:48;-11298.94;;;-145.39;24.25
37078;BME280;22989;55.998;37.212;2023-03-20T11:26:17;-11298.94;;;-145.39;24.09
37078;BME280;22989;55.998;37.212;2023-03-20T11:28:50;-11298.94;;;-145.39;23.99
37078;BME280;22989;55.998;37.212;2023-03-20T11:31:36;-11298.94;;;-145.39;23.72
37078;BME280;22989;55.998;37.212;2023-03-20T11:36:51;-11298.94;;;-145.39;23.54
37078;BME280;22989;55.998;37.212;2023-03-20T11:39:28;-11298.94;;;-145.39;23.14
37078;BME280;22989;55.998;37.212;2023-03-20T11:41:59;-11298.94;;;-145.39;22.88
37078;BME280;22989;55.998;37.212;2023-03-20T11:44:31;-11298.94;;;-145.39;22.98
37078;BME280;22989;55.998;37.212;2023-03-20T11:49:28;-11298.94;;;-145.39;22.66
37078;BME280;22989;55.998;37.212;2023-03-20T11:52:21;-11298.94;;;-145.39;22.64
37078;BME280;22989;55.998;37.212;2023-03-20T11:54:52;-11298.94;;;-145.39;22.88
37078;BME280;22989;55.998;37.212;2023-03-20T11:57:38;-11298.94;;;-145.39;22.63
37078;BME280;22989;55.998;37.212;2023-03-20T12:00:06;-11298.94;;;-145.39;22.34
37078;BME280;22989;55.998;37.212;2023-03-20T12:02:41;-11298.94;;;-145.39;22.28
37078;BME280;22989;55.998;37.212;2023-03-20T12:05:36;-11298.94;;;-145.39;22.15
37078;BME280;22989;55.998;37.212;2023-03-20T12:08:20;-11298.94;;;-145.39;22.30
37078;BME280;22989;55.998;37.212;2023-03-20T12:10:54;-11298.94;;;-145.39;22.19
37078;BME280;22989;55.998;37.212;2023-03-20T12:13:29;-11298.94;;;-145.39;22.19
37078;BME280;22989;55.998;37.212;2023-03-20T12:16:02;-11298.94;;;-145.39;22.24
37078;BME280;22989;55.998;37.212;2023-03-20T12:21:08;-11298.94;;;-145.39;21.99
37078;BME280;22989;55.998;37.212;2023-03-20T12:26:12;-11298.94;;;-145.39;22.22
37078;BME280;22989;55.998;37.212;2023-03-20T12:29:02;-11298.94;;;-145.39;22.30
37078;BME280;22989;55.998;37.212;2023-03-20T12:34:46;-11298.94;;;-145.39;22.53
37078;BME280;22989;55.998;37.212;2023-03-20T12:37:14;-11298.94;;;-145.39;22.44
37078;BME280;22989;55.998;37.212;2023-03-20T12:39:54;-11298.94;;;-145.39;22.43
37078;BME280;22989;55.998;37.212;2023-03-20T12:43:01;-11298.94;;;-145.39;22.53
37078;BME280;22989;55.998;37.212;2023-03-20T12:45:37;-11298.94;;;-145.39;22.62
37078;BME280;22989;55.998;37.212;2023-03-20T12:56:30;-11298.94;;;-145.39;22.88
37078;BME280;22989;55.998;37.212;2023-03-20T13:02:01;-11298.94;;;-145.39;23.40
37078;BME280;22989;55.998;37.212;2023-03-20T13:07:20;-11298.94;;;-145.39;23.38
37078;BME280;22989;55.998;37.212;2023-03-20T13:09:57;-11298.94;;;-145.39;23.51
37078;BME280;22989;55.998;37.212;2023-03-20T13:12:36;-11298.94;;;-145.39;23.46
37078;BME280;22989;55.998;37.212;2023-03-20T13:37:19;-11298.94;;;-145.39;24.69
37078;BME280;22989;55.998;37.212;2023-03-20T13:42:36;-11298.94;;;-145.39;24.89
37078;BME280;22989;55.998;37.212;2023-03-20T13:47:52;-11298.94;;;-145.39;24.99
37078;BME280;22989;55.998;37.212;2023-03-20T13:58:55;-11298.94;;;-145.39;25.63
37078;BME280;22989;55.998;37.212;2023-03-20T14:01:46;-11298.94;;;-145.39;25.57
37078;BME280;22989;55.998;37.212;2023-03-20T14:04:18;-11298.94;;;-145.39;25.50
37078;BME280;22989;55.998;37.212;2023-03-20T14:06:56;-11298.94;;;-145.39;25.50
37078;BME280;22989;55.998;37.212;2023-03-20T14:09:36;-11298.94;;;-145.39;25.52
37078;BME280;22989;55.998;37.212;2023-03-20T14:12:11;-11298.94;;;-145.39;25.83
37078;BME280;22989;55.998;37.212;2023-03-20T14:14:49;-11298.94;;;-145.39;25.86
37078;BME280;22989;55.998;37.212;2023-03-20T14:17:19;-11298.94;;;-145.39;25.94
37078;BME280;22989;55.998;37.212;2023-03-20T14:19:46;-11298.94;;;-145.39;25.94
37078;BME280;22989;55.998;37.212;2023-03-20T14:22:18;-11298.94;;;-145.39;26.17
37078;BME280;22989;55.998;37.212;2023-03-20T14:24:56;-11298.94;;;-145.39;26.02
37078;BME280;22989;55.998;37.212;2023-03-20T14:27:25;-11298.94;;;-145.39;26.05
37078;BME280;22989;55.998;37.212;2023-03-20T14:29:51;-11298.94;;;-145.39;26.07
37078;BME280;22989;55.998;37.212;2023-03-20T14:34:58;-11298.94;;;-145.39;26.38
37078;BME280;22989;55.998;37.212;2023-03-20T14:37:53;-11298.94;;;-145.39;26.50
37078;BME280;22989;55.998;37.212;2023-03-20T14:40:28;-11298.94;;;-145.39;26.38
37078;BME280;22989;55.998;37.212;2023-03-20T14:43:04;-11298.94;;;-145.39;26.57
37078;BME280;22989;55.998;37.212;2023-03-20T14:45:53;-11298.94;;;-145.39;26.93
37078;BME280;22989;55.998;37.212;2023-03-20T14:48:25;-11298.94;;;-145.39;26.86
37078;BME280;22989;55.998;37.212;2023-03-20T14:51:40;-11298.94;;;-145.39;27.00
37078;BME280;22989;55.998;37.212;2023-03-20T14:56:51;-11298.94;;;-145.39;27.08
37078;BME280;22989;55.998;37.212;2023-03-20T14:59:19;-11298.94;;;-145.39;27.29
37078;BME280;22989;55.998;37.212;2023-03-20T15:09:25;-11298.94;;;-145.39;27.66